Terminal Aerodrome Forecast
Issued by NWS Melbourne, FL

Home | Current Version | Previous Version | Text Only | Print | Product List | Glossary On
Versions: 1 2 3 4 5 6 7 8 9 10 11 12 13
000
FTUS42 KMLB 310530
TAFDAB
TAF
KDAB 310530Z 3106/0106 16005KT P6SM FEW022 FEW150
     FM311600 10010KT P6SM FEW040 FEW100 SCT250
     FM312200 15005KT P6SM FEW050 SCT250=

USA.gov is the U.S. government's official web portal to all federal, state and local government web resources and services.